createdAt,value
2019-04-25T00:01:49.667Z,97884.31
2019-04-25T00:04:18.475Z,97878.30
2019-04-25T00:06:47.447Z,97864.45
2019-04-25T00:09:18.784Z,97876.64
2019-04-25T00:11:48.913Z,97895.97
2019-04-25T00:14:17.779Z,97895.84
2019-04-25T00:16:51.597Z,97899.59
2019-04-25T00:19:21.910Z,97903.34
2019-04-25T00:21:59.270Z,97907.05
2019-04-25T00:24:45.137Z,97905.06
2019-04-25T00:27:14.018Z,97910.69
2019-04-25T00:29:43.936Z,97909.69
2019-04-25T00:32:13.386Z,97909.62
2019-04-25T00:34:44.250Z,97899.28
2019-04-25T00:37:13.942Z,97886.85
2019-04-25T00:39:45.060Z,97883.62
2019-04-25T00:42:14.320Z,97881.55
2019-04-25T00:44:44.799Z,97885.38
2019-04-25T00:47:13.826Z,97895.40
2019-04-25T00:49:44.041Z,97898.37
2019-04-25T00:52:13.029Z,97901.62
2019-04-25T00:54:43.062Z,97902.77
2019-04-25T00:57:12.209Z,97900.14
2019-04-25T00:59:55.642Z,97910.61
2019-04-25T01:02:37.871Z,97917.00
2019-04-25T01:05:09.488Z,97921.50
2019-04-25T01:07:38.244Z,97931.92
2019-04-25T01:10:08.587Z,97939.95
2019-04-25T01:12:37.358Z,97939.09
2019-04-25T01:15:07.253Z,97934.03
2019-04-25T01:17:36.018Z,97921.61
2019-04-25T01:20:05.856Z,97925.96
2019-04-25T01:22:34.691Z,97917.67
2019-04-25T01:25:03.907Z,97918.11
2019-04-25T01:27:33.292Z,97932.12
2019-04-25T01:30:02.156Z,97922.94
2019-04-25T01:32:35.073Z,97927.53
2019-04-25T01:35:16.353Z,97926.20
2019-04-25T01:37:51.800Z,97925.71
2019-04-25T01:40:39.595Z,97932.20
2019-04-25T01:43:21.369Z,97932.95
2019-04-25T01:45:50.175Z,97937.38
2019-04-25T01:48:18.969Z,97934.07
2019-04-25T01:50:49.285Z,97926.09
2019-04-25T01:53:18.388Z,97917.97
2019-04-25T01:55:56.115Z,97919.59
2019-04-25T01:58:18.070Z,97926.84
2019-04-25T02:00:48.283Z,97924.53
2019-04-25T02:03:17.367Z,97920.13
2019-04-25T02:05:46.229Z,97920.77
2019-04-25T02:08:15.204Z,97923.28
2019-04-25T02:10:45.795Z,97920.58
2019-04-25T02:13:16.890Z,97924.80
2019-04-25T02:15:45.884Z,97920.00
2019-04-25T02:18:14.739Z,97913.48
2019-04-25T02:20:43.746Z,97922.20
2019-04-25T02:23:14.093Z,97929.33
2019-04-25T02:25:44.301Z,97924.00
2019-04-25T02:28:15.575Z,97918.31
2019-04-25T02:30:45.363Z,97927.64
2019-04-25T02:33:14.344Z,97932.66
2019-04-25T02:35:46.590Z,97930.55
2019-04-25T02:38:14.689Z,97936.55
2019-04-25T02:40:45.402Z,97937.14
2019-04-25T02:43:15.428Z,97934.13
2019-04-25T02:46:03.982Z,97940.55
2019-04-25T02:48:50.335Z,97942.16
2019-04-25T02:51:28.636Z,97945.88
2019-04-25T02:53:57.937Z,97955.94
2019-04-25T02:56:34.088Z,97954.80
2019-04-25T02:58:58.488Z,97951.86
2019-04-25T03:01:27.443Z,97954.62
2019-04-25T03:03:57.586Z,97950.44
2019-04-25T03:06:26.963Z,97950.78
2019-04-25T03:08:56.842Z,97944.13
2019-04-25T03:11:26.128Z,97955.40
2019-04-25T03:13:55.000Z,97955.40
2019-04-25T03:16:25.105Z,97966.08
2019-04-25T03:19:02.907Z,97968.11
2019-04-25T03:21:35.217Z,97975.38
2019-04-25T03:24:08.157Z,98011.14
2019-04-25T03:26:40.387Z,97968.34
2019-04-25T03:29:13.659Z,97967.54
2019-04-25T08:02:43.577Z,98128.47
2019-04-25T08:05:16.641Z,98129.36
2019-04-25T08:07:45.575Z,98125.73
2019-04-25T08:10:15.375Z,98119.84
2019-04-25T08:12:47.286Z,98126.01
2019-04-25T08:15:35.025Z,98130.79
2019-04-25T08:18:05.755Z,98127.58
2019-04-25T08:20:35.881Z,98138.75
2019-04-25T08:23:06.310Z,98142.50
2019-04-25T08:25:38.882Z,98142.24
2019-04-25T08:28:05.724Z,98145.12
2019-04-25T08:30:35.634Z,98138.16
2019-04-25T08:33:05.662Z,98139.94
2019-04-25T08:35:35.495Z,98142.77
2019-04-25T08:38:05.837Z,98143.89
2019-04-25T08:40:37.071Z,98141.74
2019-04-25T08:43:05.553Z,98150.12
2019-04-25T08:45:35.677Z,98146.80
2019-04-25T08:48:05.069Z,98148.27
2019-04-25T08:50:41.027Z,98153.98
2019-04-25T08:53:10.221Z,98148.41
2019-04-25T08:55:57.403Z,98149.89
2019-04-25T08:58:41.237Z,98151.88
2019-04-25T09:01:20.699Z,98155.09
2019-04-25T09:03:54.360Z,98150.50
2019-04-25T09:06:24.360Z,98157.27
2019-04-25T09:08:54.015Z,98157.97
2019-04-25T09:11:24.370Z,98156.00
2019-04-25T09:13:53.740Z,98158.71
2019-04-25T09:16:23.954Z,98162.05
2019-04-25T09:18:53.949Z,98163.39
2019-04-25T09:21:23.801Z,98167.05
2019-04-25T09:23:53.551Z,98165.58
2019-04-25T09:26:23.991Z,98168.84
2019-04-25T09:28:53.632Z,98161.39
2019-04-25T09:31:23.620Z,98166.64
2019-04-25T09:33:54.831Z,98164.09
2019-04-25T09:36:24.091Z,98158.59
2019-04-25T09:38:55.482Z,98159.34
2019-04-25T09:41:24.381Z,98160.45
2019-04-25T09:43:56.321Z,98162.50
2019-04-25T09:46:30.983Z,98146.08
2019-04-25T09:49:14.208Z,98136.72
2019-04-25T09:51:47.342Z,98131.67
2019-04-25T09:54:42.392Z,98124.58
2019-04-25T09:57:29.392Z,98123.27
2019-04-25T09:59:58.124Z,98120.56
2019-04-25T10:02:27.236Z,98121.11
2019-04-25T10:04:55.996Z,98117.90
2019-04-25T10:07:24.852Z,98117.13
2019-04-25T10:09:54.765Z,98116.91
2019-04-25T10:12:23.590Z,98128.07
2019-04-25T10:15:04.781Z,98117.54
2019-04-25T10:17:33.877Z,98119.31
2019-04-25T10:20:02.715Z,98107.91
2019-04-25T10:22:31.460Z,98111.45
2019-04-25T10:25:00.866Z,98113.30
2019-04-25T10:27:29.727Z,98110.91
2019-04-25T10:29:58.491Z,98101.98
2019-04-25T10:32:27.492Z,98100.22
2019-04-25T10:34:56.311Z,98108.31
2019-04-25T10:37:25.112Z,98102.27
2019-04-25T10:39:55.531Z,98095.80
2019-04-25T10:42:24.646Z,98092.92
2019-04-25T10:44:56.269Z,98101.70
2019-04-25T10:47:23.997Z,98101.64
2019-04-25T10:49:53.677Z,98106.10
2019-04-25T10:52:23.445Z,98098.78
2019-04-25T10:54:54.176Z,98095.03
2019-04-25T10:57:24.952Z,98095.77
2019-04-25T11:00:05.104Z,98091.33
2019-04-25T11:02:24.634Z,98095.78
2019-04-25T11:04:59.239Z,98093.73
2019-04-25T11:07:28.105Z,98088.57
2019-04-25T11:09:57.265Z,98087.06
2019-04-25T11:12:26.243Z,98083.41
2019-04-25T11:14:56.252Z,98085.12
2019-04-25T11:17:25.097Z,98076.64
2019-04-25T11:19:55.212Z,98079.27
2019-04-25T11:22:24.094Z,98076.38
2019-04-25T11:24:53.095Z,98076.32
2019-04-25T11:27:23.757Z,98074.92
2019-04-25T11:30:02.853Z,98081.23
2019-04-25T11:32:26.529Z,98077.02
2019-04-25T11:34:55.354Z,98083.92
2019-04-25T11:37:25.973Z,98082.27
2019-04-25T11:40:01.499Z,98083.43
2019-04-25T11:42:30.311Z,98076.73
2019-04-25T11:44:59.204Z,98060.14
2019-04-25T11:47:28.149Z,98071.20
2019-04-25T11:49:56.992Z,98071.13
2019-04-25T11:52:28.397Z,98069.62
2019-04-25T11:54:56.316Z,98071.13
2019-04-25T11:57:25.215Z,98065.39
2019-04-25T11:59:54.581Z,98055.62
2019-04-25T12:02:26.060Z,98046.27
2019-04-25T12:04:55.302Z,98052.42
2019-04-25T12:07:24.228Z,98054.47
2019-04-25T12:09:54.481Z,98044.55
2019-04-25T12:12:23.794Z,98039.34
2019-04-25T12:14:54.349Z,98052.05
2019-04-25T12:17:23.536Z,98039.27
2019-04-25T12:19:53.943Z,98036.94
2019-04-25T12:22:23.824Z,98031.95
2019-04-25T12:24:54.368Z,98027.56
2019-04-25T12:27:23.334Z,98026.64
2019-04-25T12:29:52.450Z,98024.09
2019-04-25T12:32:21.374Z,98017.33
2019-04-25T12:34:51.634Z,98021.78
2019-04-25T12:37:20.525Z,98013.41
2019-04-25T12:39:49.417Z,98018.23
2019-04-25T12:42:18.215Z,98016.27
2019-04-25T12:44:58.201Z,98011.57
2019-04-25T12:47:28.610Z,98017.47
2019-04-25T12:49:57.923Z,98011.04
2019-04-25T12:52:26.814Z,98009.81
2019-04-25T12:54:58.074Z,98002.72
2019-04-25T12:57:26.379Z,98008.39
2019-04-25T12:59:55.539Z,97998.13
2019-04-25T13:02:24.429Z,97996.63
2019-04-25T13:04:55.211Z,97994.08
2019-04-25T13:07:23.838Z,97988.84
2019-04-25T13:09:53.693Z,97986.19
2019-04-25T13:12:23.395Z,97987.19
2019-04-25T13:14:52.301Z,97981.75
2019-04-25T13:17:21.167Z,97982.10
2019-04-25T13:19:49.974Z,97983.02
2019-04-25T13:22:19.054Z,97978.25
2019-04-25T13:24:47.865Z,97982.21
2019-04-25T13:27:25.136Z,97980.08
2019-04-25T13:30:21.998Z,97975.05
2019-04-25T13:33:08.581Z,97972.16
2019-04-25T13:35:43.385Z,97973.25
2019-04-25T13:38:12.108Z,97967.28
2019-04-25T13:40:41.449Z,97958.06
2019-04-25T13:43:10.503Z,97962.39
2019-04-25T13:45:39.273Z,97950.61
2019-04-25T13:48:08.076Z,97950.09
2019-04-25T13:50:36.804Z,97950.02
2019-04-25T13:53:06.075Z,97953.94
2019-04-25T13:55:34.822Z,97944.10
2019-04-25T13:58:04.362Z,97934.24
2019-04-25T14:00:34.861Z,97931.81
2019-04-25T14:03:04.135Z,97929.27
2019-04-25T14:05:34.017Z,97925.79
2019-04-25T14:08:03.988Z,97920.11
2019-04-25T14:10:34.231Z,97915.83
2019-04-25T14:13:03.578Z,97913.49
2019-04-25T14:15:34.362Z,97914.17
2019-04-25T14:18:24.051Z,97905.28
2019-04-25T14:20:56.991Z,97901.15
2019-04-25T14:23:25.817Z,97895.23
2019-04-25T14:25:54.547Z,97894.83
2019-04-25T14:28:24.895Z,97886.96
2019-04-25T14:30:53.791Z,97889.92
2019-04-25T14:33:25.296Z,97885.80
2019-04-25T14:35:54.818Z,97886.83
2019-04-25T14:38:25.084Z,97881.58
2019-04-25T14:40:54.453Z,97883.70
2019-04-25T14:43:24.103Z,97877.23
2019-04-25T14:45:52.951Z,97875.04
2019-04-25T14:48:22.563Z,97870.19
2019-04-25T14:50:52.346Z,97872.34
2019-04-25T14:53:21.490Z,97861.81
2019-04-25T14:56:01.998Z,97863.47
2019-04-25T14:58:33.402Z,97858.09
2019-04-25T15:01:02.208Z,97859.67
2019-04-25T15:03:31.803Z,97852.36
2019-04-25T15:06:00.685Z,97851.08
2019-04-25T15:08:30.594Z,97846.84
2019-04-25T15:10:59.430Z,97848.81
2019-04-25T15:13:28.480Z,97842.05
2019-04-25T15:15:57.323Z,97841.89
2019-04-25T15:18:26.761Z,97840.82
2019-04-25T15:20:55.471Z,97836.83
2019-04-25T15:23:25.340Z,97838.19
2019-04-25T15:25:54.325Z,97833.66
2019-04-25T15:28:24.413Z,97836.05
2019-04-25T15:30:53.510Z,97832.58
2019-04-25T15:33:22.253Z,97832.14
2019-04-25T15:35:56.883Z,97828.33
2019-04-25T15:38:35.911Z,97827.25
2019-04-25T15:41:30.451Z,97827.14
2019-04-25T15:44:18.541Z,97827.48
2019-04-25T15:46:47.288Z,97827.38
2019-04-25T15:49:16.368Z,97820.11
2019-04-25T15:51:45.291Z,97824.26
2019-04-25T15:54:14.196Z,97825.04
2019-04-25T15:56:42.977Z,97830.88
2019-04-25T15:59:12.161Z,97815.33
2019-04-25T16:01:40.976Z,97818.19
2019-04-25T16:04:09.871Z,97817.22
2019-04-25T16:06:38.695Z,97815.90
2019-04-25T16:09:10.360Z,97812.65
2019-04-25T16:11:38.470Z,97813.28
2019-04-25T16:14:07.419Z,97808.91
2019-04-25T16:16:36.175Z,97806.73
2019-04-25T16:19:05.036Z,97811.22
2019-04-25T16:21:33.901Z,97808.48
2019-04-25T16:24:03.321Z,97805.16
2019-04-25T16:26:32.153Z,97804.38
2019-04-25T16:29:00.921Z,97808.13
2019-04-25T16:31:30.455Z,97797.98
2019-04-25T16:33:59.317Z,97788.14
2019-04-25T16:36:28.266Z,97794.31
2019-04-25T16:38:57.035Z,97786.88
2019-04-25T16:41:25.914Z,97781.39
2019-04-25T16:43:58.846Z,97777.84
2019-04-25T16:46:28.794Z,97781.45
2019-04-25T16:48:57.543Z,97777.11
2019-04-25T16:51:26.406Z,97782.16
2019-04-25T16:53:55.226Z,97782.36
2019-04-25T16:56:24.174Z,97785.67
2019-04-25T16:58:53.075Z,97788.91
2019-04-25T17:01:21.905Z,97778.13
2019-04-25T17:03:50.705Z,97774.97
2019-04-25T17:06:19.776Z,97781.45
2019-04-25T17:08:48.881Z,97773.59
2019-04-25T17:11:18.001Z,97778.80
2019-04-25T17:13:55.403Z,97775.56
2019-04-25T17:16:58.425Z,97773.20
2019-04-25T17:19:52.471Z,97771.27
2019-04-25T17:22:21.689Z,97765.53
2019-04-25T17:24:50.719Z,97763.23
2019-04-25T17:27:20.318Z,97764.58
2019-04-25T17:29:49.189Z,97759.69
2019-04-25T17:32:53.558Z,97764.05
2019-04-25T17:35:32.045Z,97767.26
2019-04-25T17:38:04.879Z,97771.69
2019-04-25T17:40:33.926Z,97770.72
2019-04-25T17:43:10.942Z,97769.98
2019-04-25T17:45:34.740Z,97768.70
2019-04-25T17:48:04.460Z,97774.18
2019-04-25T17:50:34.228Z,97767.17
2019-04-25T17:53:03.124Z,97769.53
2019-04-25T17:55:33.163Z,97768.16
2019-04-25T17:58:02.218Z,97767.37
2019-04-25T18:00:39.705Z,97761.27
2019-04-25T18:03:10.839Z,97767.55
2019-04-25T18:05:39.771Z,97765.48
2019-04-25T18:08:08.633Z,97765.55
2019-04-25T18:10:37.773Z,97762.87
2019-04-25T18:13:09.416Z,97757.41
2019-04-25T18:16:02.882Z,97756.70
2019-04-25T18:18:40.216Z,97753.84
2019-04-25T18:21:09.179Z,97753.72
2019-04-25T18:24:03.216Z,97754.34
2019-04-25T18:26:37.427Z,97752.51
2019-04-25T18:29:09.871Z,97741.75
2019-04-25T18:31:39.582Z,97737.96
2019-04-25T18:34:12.344Z,97734.34
2019-04-25T18:37:00.177Z,97737.13
2019-04-25T18:39:36.603Z,97735.83
2019-04-25T18:42:10.422Z,97735.55
2019-04-25T18:44:42.566Z,97741.48
2019-04-25T18:47:11.316Z,97741.16
2019-04-25T18:49:42.506Z,97746.13
2019-04-25T18:52:21.813Z,97749.97
2019-04-25T18:54:57.728Z,97750.19
2019-04-25T18:57:42.053Z,97754.23
2019-04-25T19:00:39.901Z,97751.64
2019-04-25T19:03:28.995Z,97749.45
2019-04-25T19:06:00.579Z,97758.73
2019-04-25T19:08:29.678Z,97754.86
2019-04-25T19:10:58.653Z,97751.97
2019-04-25T19:13:27.466Z,97754.77
2019-04-25T19:15:56.521Z,97758.91
2019-04-25T19:18:25.278Z,97764.44
2019-04-25T19:20:54.588Z,97765.97
2019-04-25T19:23:23.378Z,97758.91
2019-04-25T19:25:52.541Z,97760.09
2019-04-25T19:28:21.647Z,97758.83
2019-04-25T19:30:51.389Z,97759.58
2019-04-25T19:33:21.952Z,97754.73
2019-04-25T19:35:51.826Z,97754.68
2019-04-25T19:38:20.820Z,97755.87
2019-04-25T19:41:09.666Z,97757.05
2019-04-25T19:43:54.230Z,97762.55
2019-04-25T19:46:37.810Z,97759.63
2019-04-25T19:49:07.452Z,97752.12
2019-04-25T19:51:37.271Z,97756.01
2019-04-25T19:54:07.481Z,97760.72
2019-04-25T19:56:36.857Z,97761.05
2019-04-25T19:59:06.346Z,97759.06
2019-04-25T20:01:35.356Z,97758.88
2019-04-25T20:04:15.965Z,97755.88
2019-04-25T20:07:03.074Z,97759.31
2019-04-25T20:09:49.855Z,97765.24
2019-04-25T20:12:18.908Z,97760.70
2019-04-25T20:14:47.861Z,97751.95
2019-04-25T20:17:16.624Z,97762.11
2019-04-25T20:19:45.958Z,97763.17
2019-04-25T20:22:14.687Z,97760.45
2019-04-25T20:24:46.827Z,97758.88
2019-04-25T20:27:15.628Z,97755.52
2019-04-25T20:29:45.260Z,97752.98
2019-04-25T20:32:15.187Z,97745.81
2019-04-25T20:34:44.562Z,97753.52
2019-04-25T20:37:14.492Z,97752.89
2019-04-25T20:39:43.301Z,97752.61
2019-04-25T20:42:14.763Z,97750.64
2019-04-25T20:44:43.889Z,97751.75
2019-04-25T20:47:12.730Z,97744.63
2019-04-25T20:49:41.505Z,97748.66
2019-04-25T20:52:10.280Z,97739.67
2019-04-25T20:54:39.015Z,97748.86
2019-04-25T20:57:07.836Z,97746.91
2019-04-25T20:59:36.577Z,97754.93
2019-04-25T21:02:06.066Z,97751.64
2019-04-25T21:04:41.952Z,97749.69
2019-04-25T21:07:11.227Z,97752.92
2019-04-25T21:09:40.518Z,97756.83
2019-04-25T21:12:09.820Z,97748.97
2019-04-25T21:14:56.502Z,97758.65
2019-04-25T21:17:43.256Z,97758.98
2019-04-25T21:20:12.460Z,97749.94
2019-04-25T21:22:41.443Z,97752.55
2019-04-25T21:25:10.487Z,97753.66
2019-04-25T21:27:39.374Z,97755.51
2019-04-25T21:30:09.811Z,97756.27
2019-04-25T21:32:53.394Z,97753.02
2019-04-25T21:35:23.385Z,97746.94
2019-04-25T21:37:53.458Z,97752.86
2019-04-25T21:40:38.771Z,97751.32
2019-04-25T21:43:11.455Z,97748.70
2019-04-25T21:45:40.500Z,97744.75
2019-04-25T21:48:09.605Z,97761.01
2019-04-25T21:50:38.650Z,97753.61
2019-04-25T21:53:07.756Z,97744.16
2019-04-25T21:55:36.842Z,97742.54
2019-04-25T21:58:06.004Z,97744.44
2019-04-25T22:00:53.807Z,97739.73
2019-04-25T22:03:24.802Z,97730.02
2019-04-25T22:05:54.328Z,97734.52
2019-04-25T22:08:24.183Z,97735.30
2019-04-25T22:10:53.396Z,97732.33
2019-04-25T22:13:22.339Z,97734.55
2019-04-25T22:15:51.664Z,97729.22
2019-04-25T22:18:20.802Z,97725.61
2019-04-25T22:20:49.575Z,97727.52
2019-04-25T22:23:18.587Z,97727.55
2019-04-25T22:25:47.637Z,97740.78
2019-04-25T22:28:16.689Z,97734.58
2019-04-25T22:30:47.715Z,97738.70
2019-04-25T22:33:41.339Z,97736.60
2019-04-25T22:36:13.623Z,97739.19
2019-04-25T22:38:42.565Z,97738.32
2019-04-25T22:41:11.646Z,97754.22
2019-04-25T22:43:44.028Z,97757.00
2019-04-25T22:46:25.210Z,97769.14
2019-04-25T22:48:49.300Z,97762.01
2019-04-25T22:51:18.378Z,97773.52
2019-04-25T22:53:47.743Z,97781.82
2019-04-25T22:56:16.589Z,97774.97
2019-04-25T22:58:45.520Z,97769.50
2019-04-25T23:01:46.218Z,97769.08
2019-04-25T23:04:25.296Z,97765.54
2019-04-25T23:06:54.036Z,97782.49
2019-04-25T23:09:22.840Z,97784.22
2019-04-25T23:11:52.001Z,97780.75
2019-04-25T23:14:21.003Z,97778.78
2019-04-25T23:16:49.761Z,97787.06
2019-04-25T23:19:18.568Z,97801.45
2019-04-25T23:21:47.505Z,97809.55
2019-04-25T23:24:17.888Z,97804.51
2019-04-25T23:27:14.834Z,97808.77
2019-04-25T23:29:43.639Z,97812.20
2019-04-25T23:32:12.657Z,97817.60
2019-04-25T23:34:41.401Z,97822.75
2019-04-25T23:37:10.917Z,97818.75
2019-04-25T23:39:40.218Z,97820.02
2019-04-25T23:42:09.328Z,97803.09
2019-04-25T23:44:38.407Z,97797.59
2019-04-25T23:47:08.243Z,97795.94
2019-04-25T23:49:37.502Z,97802.17
2019-04-25T23:52:07.372Z,97796.98
2019-04-25T23:54:36.167Z,97793.40
2019-04-25T23:57:05.286Z,97798.66
2019-04-25T23:59:34.016Z,97795.01
